sensor_id;sensor_type;location;lat;lon;timestamp;P1;durP1;ratioP1;P2;durP2;ratioP2
76593;SDS011;65482;50.240;14.302;2023-08-01T00:01:30;5.20;;;3.13;;
76593;SDS011;65482;50.240;14.302;2023-08-01T00:03:56;6.32;;;3.20;;
76593;SDS011;65482;50.240;14.302;2023-08-01T00:06:22;6.50;;;2.92;;
76593;SDS011;65482;50.240;14.302;2023-08-01T00:08:49;4.88;;;3.00;;
76593;SDS011;65482;50.240;14.302;2023-08-01T00:11:15;7.18;;;3.33;;
76593;SDS011;65482;50.240;14.302;2023-08-01T00:13:41;7.38;;;3.55;;
76593;SDS011;65482;50.240;14.302;2023-08-01T00:16:08;5.40;;;3.28;;
76593;SDS011;65482;50.240;14.302;2023-08-01T00:18:34;5.03;;;3.03;;
76593;SDS011;65482;50.240;14.302;2023-08-01T00:21:00;6.65;;;3.33;;
76593;SDS011;65482;50.240;14.302;2023-08-01T00:23:26;5.00;;;3.30;;
76593;SDS011;65482;50.240;14.302;2023-08-01T00:25:52;6.63;;;3.63;;
76593;SDS011;65482;50.240;14.302;2023-08-01T00:28:18;5.45;;;3.70;;
76593;SDS011;65482;50.240;14.302;2023-08-01T00:30:45;8.88;;;3.38;;
76593;SDS011;65482;50.240;14.302;2023-08-01T00:33:11;5.97;;;3.10;;
76593;SDS011;65482;50.240;14.302;2023-08-01T00:35:37;5.75;;;3.08;;
76593;SDS011;65482;50.240;14.302;2023-08-01T00:38:02;6.03;;;3.03;;
76593;SDS011;65482;50.240;14.302;2023-08-01T00:40:31;4.88;;;2.90;;
76593;SDS011;65482;50.240;14.302;2023-08-01T00:42:58;6.45;;;3.40;;
76593;SDS011;65482;50.240;14.302;2023-08-01T00:45:24;5.85;;;2.95;;
76593;SDS011;65482;50.240;14.302;2023-08-01T00:47:51;7.93;;;3.50;;
76593;SDS011;65482;50.240;14.302;2023-08-01T00:50:18;8.10;;;3.40;;
76593;SDS011;65482;50.240;14.302;2023-08-01T00:52:48;4.85;;;3.05;;
76593;SDS011;65482;50.240;14.302;2023-08-01T00:55:17;5.63;;;3.30;;
76593;SDS011;65482;50.240;14.302;2023-08-01T00:57:43;5.13;;;3.55;;
76593;SDS011;65482;50.240;14.302;2023-08-01T01:00:10;5.75;;;3.20;;
76593;SDS011;65482;50.240;14.302;2023-08-01T01:02:36;5.22;;;3.08;;
76593;SDS011;65482;50.240;14.302;2023-08-01T01:05:02;7.55;;;2.88;;
76593;SDS011;65482;50.240;14.302;2023-08-01T01:07:29;5.07;;;3.15;;
76593;SDS011;65482;50.240;14.302;2023-08-01T01:09:57;5.97;;;3.15;;
76593;SDS011;65482;50.240;14.302;2023-08-01T01:12:23;5.43;;;3.13;;
76593;SDS011;65482;50.240;14.302;2023-08-01T01:14:49;5.70;;;3.00;;
76593;SDS011;65482;50.240;14.302;2023-08-01T01:17:14;5.55;;;3.33;;
76593;SDS011;65482;50.240;14.302;2023-08-01T01:19:40;8.23;;;3.10;;
76593;SDS011;65482;50.240;14.302;2023-08-01T01:22:06;4.00;;;2.85;;
76593;SDS011;65482;50.240;14.302;2023-08-01T01:24:35;6.65;;;3.22;;
76593;SDS011;65482;50.240;14.302;2023-08-01T01:27:01;6.57;;;2.70;;
76593;SDS011;65482;50.240;14.302;2023-08-01T01:29:30;5.50;;;3.17;;
76593;SDS011;65482;50.240;14.302;2023-08-01T01:31:58;3.95;;;2.92;;
76593;SDS011;65482;50.240;14.302;2023-08-01T01:34:26;4.68;;;2.92;;
76593;SDS011;65482;50.240;14.302;2023-08-01T01:36:53;4.30;;;3.00;;
76593;SDS011;65482;50.240;14.302;2023-08-01T01:39:19;5.57;;;3.03;;
76593;SDS011;65482;50.240;14.302;2023-08-01T01:41:46;4.53;;;3.28;;
76593;SDS011;65482;50.240;14.302;2023-08-01T01:44:12;4.93;;;2.83;;
76593;SDS011;65482;50.240;14.302;2023-08-01T01:46:38;6.10;;;2.90;;
76593;SDS011;65482;50.240;14.302;2023-08-01T01:49:04;5.30;;;3.17;;
76593;SDS011;65482;50.240;14.302;2023-08-01T01:51:31;5.00;;;2.88;;
76593;SDS011;65482;50.240;14.302;2023-08-01T01:53:57;4.05;;;2.90;;
76593;SDS011;65482;50.240;14.302;2023-08-01T01:56:23;5.35;;;3.08;;
76593;SDS011;65482;50.240;14.302;2023-08-01T01:58:48;5.93;;;2.67;;
76593;SDS011;65482;50.240;14.302;2023-08-01T02:01:14;4.53;;;3.10;;
76593;SDS011;65482;50.240;14.302;2023-08-01T02:03:40;4.90;;;3.10;;
76593;SDS011;65482;50.240;14.302;2023-08-01T02:06:05;5.00;;;2.78;;
76593;SDS011;65482;50.240;14.302;2023-08-01T02:08:31;6.70;;;2.75;;
76593;SDS011;65482;50.240;14.302;2023-08-01T02:10:57;7.10;;;2.90;;
76593;SDS011;65482;50.240;14.302;2023-08-01T02:13:27;7.32;;;3.90;;
76593;SDS011;65482;50.240;14.302;2023-08-01T02:15:54;4.53;;;2.78;;
76593;SDS011;65482;50.240;14.302;2023-08-01T02:18:20;6.20;;;3.20;;
76593;SDS011;65482;50.240;14.302;2023-08-01T02:20:45;7.82;;;2.97;;
76593;SDS011;65482;50.240;14.302;2023-08-01T02:23:11;6.85;;;3.03;;
76593;SDS011;65482;50.240;14.302;2023-08-01T02:25:40;7.47;;;3.45;;
76593;SDS011;65482;50.240;14.302;2023-08-01T02:28:06;4.60;;;2.90;;
76593;SDS011;65482;50.240;14.302;2023-08-01T02:30:33;8.43;;;3.40;;
76593;SDS011;65482;50.240;14.302;2023-08-01T02:32:59;5.18;;;2.97;;
76593;SDS011;65482;50.240;14.302;2023-08-01T02:35:25;4.18;;;3.20;;
76593;SDS011;65482;50.240;14.302;2023-08-01T02:37:50;5.82;;;3.00;;
76593;SDS011;65482;50.240;14.302;2023-08-01T02:40:16;4.68;;;2.85;;
76593;SDS011;65482;50.240;14.302;2023-08-01T02:42:42;7.07;;;3.55;;
76593;SDS011;65482;50.240;14.302;2023-08-01T02:45:08;5.15;;;3.30;;
76593;SDS011;65482;50.240;14.302;2023-08-01T02:47:34;5.72;;;3.15;;
76593;SDS011;65482;50.240;14.302;2023-08-01T02:49:59;5.07;;;3.53;;
76593;SDS011;65482;50.240;14.302;2023-08-01T02:52:25;4.55;;;2.80;;
76593;SDS011;65482;50.240;14.302;2023-08-01T02:54:50;5.65;;;3.15;;
76593;SDS011;65482;50.240;14.302;2023-08-01T02:57:16;3.88;;;2.90;;
76593;SDS011;65482;50.240;14.302;2023-08-01T02:59:42;5.50;;;3.00;;
76593;SDS011;65482;50.240;14.302;2023-08-01T03:02:09;6.53;;;3.00;;
76593;SDS011;65482;50.240;14.302;2023-08-01T03:04:34;5.70;;;3.00;;
76593;SDS011;65482;50.240;14.302;2023-08-01T03:07:01;7.57;;;3.42;;
76593;SDS011;65482;50.240;14.302;2023-08-01T03:09:26;4.97;;;3.28;;
76593;SDS011;65482;50.240;14.302;2023-08-01T03:11:52;6.57;;;3.47;;
76593;SDS011;65482;50.240;14.302;2023-08-01T03:14:18;6.78;;;3.08;;
76593;SDS011;65482;50.240;14.302;2023-08-01T03:16:43;7.95;;;3.42;;
76593;SDS011;65482;50.240;14.302;2023-08-01T03:19:09;6.72;;;3.30;;
76593;SDS011;65482;50.240;14.302;2023-08-01T03:21:35;7.47;;;3.25;;
76593;SDS011;65482;50.240;14.302;2023-08-01T03:24:01;6.88;;;3.28;;
76593;SDS011;65482;50.240;14.302;2023-08-01T03:26:27;5.28;;;3.10;;
76593;SDS011;65482;50.240;14.302;2023-08-01T03:28:54;6.53;;;3.05;;
76593;SDS011;65482;50.240;14.302;2023-08-01T03:31:23;5.63;;;3.22;;
76593;SDS011;65482;50.240;14.302;2023-08-01T03:33:48;5.90;;;3.53;;
76593;SDS011;65482;50.240;14.302;2023-08-01T03:36:14;6.60;;;3.45;;
76593;SDS011;65482;50.240;14.302;2023-08-01T03:38:40;3.80;;;3.00;;
76593;SDS011;65482;50.240;14.302;2023-08-01T03:41:05;6.47;;;3.17;;
76593;SDS011;65482;50.240;14.302;2023-08-01T03:43:31;7.00;;;3.33;;
76593;SDS011;65482;50.240;14.302;2023-08-01T03:45:57;7.25;;;3.33;;
76593;SDS011;65482;50.240;14.302;2023-08-01T03:48:22;5.35;;;3.35;;
76593;SDS011;65482;50.240;14.302;2023-08-01T03:50:48;6.45;;;3.40;;
76593;SDS011;65482;50.240;14.302;2023-08-01T03:53:14;5.78;;;3.38;;
76593;SDS011;65482;50.240;14.302;2023-08-01T03:55:40;8.00;;;3.67;;
76593;SDS011;65482;50.240;14.302;2023-08-01T03:58:05;6.35;;;3.42;;
76593;SDS011;65482;50.240;14.302;2023-08-01T04:00:31;7.05;;;3.33;;
76593;SDS011;65482;50.240;14.302;2023-08-01T04:03:00;6.30;;;3.35;;
76593;SDS011;65482;50.240;14.302;2023-08-01T04:05:27;5.88;;;3.80;;
76593;SDS011;65482;50.240;14.302;2023-08-01T04:07:53;6.50;;;3.63;;
76593;SDS011;65482;50.240;14.302;2023-08-01T04:10:22;5.63;;;2.95;;
76593;SDS011;65482;50.240;14.302;2023-08-01T04:12:48;6.80;;;3.75;;
76593;SDS011;65482;50.240;14.302;2023-08-01T04:15:14;7.15;;;3.92;;
76593;SDS011;65482;50.240;14.302;2023-08-01T04:17:40;5.03;;;3.20;;
76593;SDS011;65482;50.240;14.302;2023-08-01T04:20:06;5.10;;;3.28;;
76593;SDS011;65482;50.240;14.302;2023-08-01T04:22:32;7.43;;;3.17;;
76593;SDS011;65482;50.240;14.302;2023-08-01T04:24:58;9.38;;;3.47;;
76593;SDS011;65482;50.240;14.302;2023-08-01T04:27:23;7.57;;;3.45;;
76593;SDS011;65482;50.240;14.302;2023-08-01T04:29:49;6.93;;;3.42;;
76593;SDS011;65482;50.240;14.302;2023-08-01T04:32:15;6.40;;;3.25;;
76593;SDS011;65482;50.240;14.302;2023-08-01T04:34:41;6.60;;;3.70;;
76593;SDS011;65482;50.240;14.302;2023-08-01T04:37:07;5.90;;;3.30;;
76593;SDS011;65482;50.240;14.302;2023-08-01T04:39:34;6.50;;;3.00;;
76593;SDS011;65482;50.240;14.302;2023-08-01T04:41:59;7.47;;;3.33;;
76593;SDS011;65482;50.240;14.302;2023-08-01T04:44:25;6.93;;;3.55;;
76593;SDS011;65482;50.240;14.302;2023-08-01T04:46:51;6.97;;;3.25;;
76593;SDS011;65482;50.240;14.302;2023-08-01T04:49:17;8.25;;;3.70;;
76593;SDS011;65482;50.240;14.302;2023-08-01T04:51:42;6.35;;;3.50;;
76593;SDS011;65482;50.240;14.302;2023-08-01T04:54:08;6.32;;;2.95;;
76593;SDS011;65482;50.240;14.302;2023-08-01T04:56:34;7.25;;;3.08;;
76593;SDS011;65482;50.240;14.302;2023-08-01T04:58:59;6.72;;;3.28;;
76593;SDS011;65482;50.240;14.302;2023-08-01T05:01:27;7.65;;;3.35;;
76593;SDS011;65482;50.240;14.302;2023-08-01T05:03:53;6.20;;;2.95;;
76593;SDS011;65482;50.240;14.302;2023-08-01T05:06:18;5.28;;;3.38;;
76593;SDS011;65482;50.240;14.302;2023-08-01T05:08:44;5.38;;;3.05;;
76593;SDS011;65482;50.240;14.302;2023-08-01T05:11:11;6.07;;;3.08;;
76593;SDS011;65482;50.240;14.302;2023-08-01T05:13:37;9.65;;;3.30;;
76593;SDS011;65482;50.240;14.302;2023-08-01T05:16:02;9.05;;;3.35;;
76593;SDS011;65482;50.240;14.302;2023-08-01T05:18:29;8.27;;;4.35;;
76593;SDS011;65482;50.240;14.302;2023-08-01T05:20:54;8.77;;;3.40;;
76593;SDS011;65482;50.240;14.302;2023-08-01T05:23:20;7.32;;;3.00;;
76593;SDS011;65482;50.240;14.302;2023-08-01T05:25:45;5.20;;;3.03;;
76593;SDS011;65482;50.240;14.302;2023-08-01T05:28:11;5.40;;;2.90;;
76593;SDS011;65482;50.240;14.302;2023-08-01T05:30:37;4.50;;;2.92;;
76593;SDS011;65482;50.240;14.302;2023-08-01T05:33:03;6.22;;;2.97;;
76593;SDS011;65482;50.240;14.302;2023-08-01T05:35:29;6.53;;;3.25;;
76593;SDS011;65482;50.240;14.302;2023-08-01T05:37:54;5.30;;;3.03;;
76593;SDS011;65482;50.240;14.302;2023-08-01T05:40:20;5.35;;;2.97;;
76593;SDS011;65482;50.240;14.302;2023-08-01T05:42:46;5.65;;;2.95;;
76593;SDS011;65482;50.240;14.302;2023-08-01T05:45:11;5.15;;;3.30;;
76593;SDS011;65482;50.240;14.302;2023-08-01T05:47:37;5.72;;;3.08;;
76593;SDS011;65482;50.240;14.302;2023-08-01T05:50:05;8.05;;;3.35;;
76593;SDS011;65482;50.240;14.302;2023-08-01T05:52:31;4.93;;;2.78;;
76593;SDS011;65482;50.240;14.302;2023-08-01T05:54:57;6.18;;;3.13;;
76593;SDS011;65482;50.240;14.302;2023-08-01T05:57:23;4.70;;;3.22;;
76593;SDS011;65482;50.240;14.302;2023-08-01T05:59:48;4.32;;;2.72;;
76593;SDS011;65482;50.240;14.302;2023-08-01T06:02:15;6.05;;;3.05;;
76593;SDS011;65482;50.240;14.302;2023-08-01T06:04:41;5.85;;;2.97;;
76593;SDS011;65482;50.240;14.302;2023-08-01T06:07:07;4.70;;;3.28;;
76593;SDS011;65482;50.240;14.302;2023-08-01T06:09:33;5.05;;;2.88;;
76593;SDS011;65482;50.240;14.302;2023-08-01T06:12:00;4.72;;;2.83;;
76593;SDS011;65482;50.240;14.302;2023-08-01T06:14:25;5.47;;;3.20;;
76593;SDS011;65482;50.240;14.302;2023-08-01T06:17:06;9.70;;;3.65;;
76593;SDS011;65482;50.240;14.302;2023-08-01T06:19:31;4.22;;;2.75;;
76593;SDS011;65482;50.240;14.302;2023-08-01T06:21:57;4.15;;;2.83;;
76593;SDS011;65482;50.240;14.302;2023-08-01T06:24:22;6.10;;;2.67;;
76593;SDS011;65482;50.240;14.302;2023-08-01T06:26:48;5.25;;;2.80;;
76593;SDS011;65482;50.240;14.302;2023-08-01T06:29:14;5.38;;;3.03;;
76593;SDS011;65482;50.240;14.302;2023-08-01T06:31:39;7.38;;;3.05;;
76593;SDS011;65482;50.240;14.302;2023-08-01T06:34:05;4.72;;;2.92;;
76593;SDS011;65482;50.240;14.302;2023-08-01T06:36:30;4.45;;;2.90;;
76593;SDS011;65482;50.240;14.302;2023-08-01T06:38:58;4.97;;;3.03;;
76593;SDS011;65482;50.240;14.302;2023-08-01T06:41:23;5.95;;;3.20;;
76593;SDS011;65482;50.240;14.302;2023-08-01T06:43:50;4.03;;;2.95;;
76593;SDS011;65482;50.240;14.302;2023-08-01T06:46:16;6.10;;;3.55;;
76593;SDS011;65482;50.240;14.302;2023-08-01T06:48:42;6.25;;;2.85;;
76593;SDS011;65482;50.240;14.302;2023-08-01T06:51:08;5.40;;;2.83;;
76593;SDS011;65482;50.240;14.302;2023-08-01T06:53:34;3.95;;;2.72;;
76593;SDS011;65482;50.240;14.302;2023-08-01T06:55:59;4.82;;;2.92;;
76593;SDS011;65482;50.240;14.302;2023-08-01T06:58:26;5.28;;;2.75;;
76593;SDS011;65482;50.240;14.302;2023-08-01T07:00:51;4.80;;;2.47;;
76593;SDS011;65482;50.240;14.302;2023-08-01T07:03:17;4.60;;;2.50;;
76593;SDS011;65482;50.240;14.302;2023-08-01T07:05:43;4.13;;;2.47;;
76593;SDS011;65482;50.240;14.302;2023-08-01T07:08:08;6.15;;;3.08;;
76593;SDS011;65482;50.240;14.302;2023-08-01T07:10:34;4.57;;;2.47;;
76593;SDS011;65482;50.240;14.302;2023-08-01T07:13:00;4.05;;;2.63;;
76593;SDS011;65482;50.240;14.302;2023-08-01T07:15:30;4.63;;;2.60;;
76593;SDS011;65482;50.240;14.302;2023-08-01T07:17:56;5.88;;;3.10;;
76593;SDS011;65482;50.240;14.302;2023-08-01T07:20:22;6.43;;;3.30;;
76593;SDS011;65482;50.240;14.302;2023-08-01T07:22:48;5.60;;;3.00;;
76593;SDS011;65482;50.240;14.302;2023-08-01T07:25:14;6.45;;;2.92;;
76593;SDS011;65482;50.240;14.302;2023-08-01T07:27:41;6.90;;;3.08;;
76593;SDS011;65482;50.240;14.302;2023-08-01T07:30:07;5.28;;;2.70;;
76593;SDS011;65482;50.240;14.302;2023-08-01T07:32:34;4.28;;;3.00;;
76593;SDS011;65482;50.240;14.302;2023-08-01T07:34:59;4.13;;;2.90;;
76593;SDS011;65482;50.240;14.302;2023-08-01T07:37:25;4.60;;;2.63;;
76593;SDS011;65482;50.240;14.302;2023-08-01T07:39:54;4.85;;;3.10;;
76593;SDS011;65482;50.240;14.302;2023-08-01T07:42:20;12.32;;;2.90;;
76593;SDS011;65482;50.240;14.302;2023-08-01T07:44:46;8.00;;;3.20;;
76593;SDS011;65482;50.240;14.302;2023-08-01T07:47:11;8.00;;;3.40;;
76593;SDS011;65482;50.240;14.302;2023-08-01T07:49:37;5.70;;;3.17;;
76593;SDS011;65482;50.240;14.302;2023-08-01T07:52:03;8.07;;;3.50;;
76593;SDS011;65482;50.240;14.302;2023-08-01T07:54:29;6.22;;;3.05;;
76593;SDS011;65482;50.240;14.302;2023-08-01T07:56:55;4.25;;;2.80;;
76593;SDS011;65482;50.240;14.302;2023-08-01T07:59:21;4.97;;;3.28;;
76593;SDS011;65482;50.240;14.302;2023-08-01T08:01:46;5.97;;;3.40;;
76593;SDS011;65482;50.240;14.302;2023-08-01T08:04:12;6.63;;;3.13;;
76593;SDS011;65482;50.240;14.302;2023-08-01T08:06:39;7.20;;;3.38;;
76593;SDS011;65482;50.240;14.302;2023-08-01T08:09:06;3.97;;;2.80;;
76593;SDS011;65482;50.240;14.302;2023-08-01T08:11:31;6.03;;;3.42;;
76593;SDS011;65482;50.240;14.302;2023-08-01T08:13:59;6.00;;;3.30;;
76593;SDS011;65482;50.240;14.302;2023-08-01T08:16:24;4.88;;;3.25;;
76593;SDS011;65482;50.240;14.302;2023-08-01T08:18:51;5.57;;;3.15;;
76593;SDS011;65482;50.240;14.302;2023-08-01T08:21:16;5.97;;;3.70;;
76593;SDS011;65482;50.240;14.302;2023-08-01T08:23:42;6.95;;;3.05;;
76593;SDS011;65482;50.240;14.302;2023-08-01T08:26:07;4.40;;;3.03;;
76593;SDS011;65482;50.240;14.302;2023-08-01T08:28:33;5.50;;;3.15;;
76593;SDS011;65482;50.240;14.302;2023-08-01T08:31:00;5.00;;;3.25;;
76593;SDS011;65482;50.240;14.302;2023-08-01T08:33:27;3.85;;;2.78;;
76593;SDS011;65482;50.240;14.302;2023-08-01T08:35:53;4.72;;;3.00;;
76593;SDS011;65482;50.240;14.302;2023-08-01T08:38:19;7.43;;;3.63;;
76593;SDS011;65482;50.240;14.302;2023-08-01T08:40:52;5.10;;;2.95;;
76593;SDS011;65482;50.240;14.302;2023-08-01T08:43:27;8.38;;;3.50;;
76593;SDS011;65482;50.240;14.302;2023-08-01T08:45:53;4.78;;;2.83;;
76593;SDS011;65482;50.240;14.302;2023-08-01T08:48:22;3.60;;;2.95;;
76593;SDS011;65482;50.240;14.302;2023-08-01T08:50:49;4.60;;;2.88;;
76593;SDS011;65482;50.240;14.302;2023-08-01T08:53:17;4.15;;;2.47;;
76593;SDS011;65482;50.240;14.302;2023-08-01T08:55:43;4.28;;;2.60;;
76593;SDS011;65482;50.240;14.302;2023-08-01T08:58:09;6.50;;;3.10;;
76593;SDS011;65482;50.240;14.302;2023-08-01T09:00:35;4.07;;;2.80;;
76593;SDS011;65482;50.240;14.302;2023-08-01T09:03:03;4.03;;;2.70;;
76593;SDS011;65482;50.240;14.302;2023-08-01T09:05:31;4.00;;;2.80;;
76593;SDS011;65482;50.240;14.302;2023-08-01T09:08:18;4.35;;;2.75;;
76593;SDS011;65482;50.240;14.302;2023-08-01T09:10:46;4.53;;;2.83;;
76593;SDS011;65482;50.240;14.302;2023-08-01T09:13:12;5.55;;;3.10;;
76593;SDS011;65482;50.240;14.302;2023-08-01T09:15:39;5.22;;;2.90;;
76593;SDS011;65482;50.240;14.302;2023-08-01T09:18:06;4.07;;;3.10;;
76593;SDS011;65482;50.240;14.302;2023-08-01T09:20:42;6.80;;;2.85;;
76593;SDS011;65482;50.240;14.302;2023-08-01T09:23:10;4.82;;;3.00;;
76593;SDS011;65482;50.240;14.302;2023-08-01T09:25:39;4.95;;;2.80;;
76593;SDS011;65482;50.240;14.302;2023-08-01T09:28:15;3.20;;;2.60;;
76593;SDS011;65482;50.240;14.302;2023-08-01T09:30:45;6.68;;;2.70;;
76593;SDS011;65482;50.240;14.302;2023-08-01T09:33:12;8.23;;;2.83;;
76593;SDS011;65482;50.240;14.302;2023-08-01T09:35:38;6.13;;;2.50;;
76593;SDS011;65482;50.240;14.302;2023-08-01T09:38:04;4.65;;;2.50;;
76593;SDS011;65482;50.240;14.302;2023-08-01T09:40:37;3.17;;;2.50;;
76593;SDS011;65482;50.240;14.302;2023-08-01T09:43:03;3.17;;;2.38;;
76593;SDS011;65482;50.240;14.302;2023-08-01T09:45:29;5.00;;;2.70;;
76593;SDS011;65482;50.240;14.302;2023-08-01T09:47:55;4.60;;;2.70;;
76593;SDS011;65482;50.240;14.302;2023-08-01T09:50:21;4.20;;;2.50;;
76593;SDS011;65482;50.240;14.302;2023-08-01T09:52:49;4.93;;;2.38;;
76593;SDS011;65482;50.240;14.302;2023-08-01T09:55:31;35.42;;;5.00;;
76593;SDS011;65482;50.240;14.302;2023-08-01T09:57:58;4.32;;;2.70;;
76593;SDS011;65482;50.240;14.302;2023-08-01T10:00:25;5.68;;;2.15;;
76593;SDS011;65482;50.240;14.302;2023-08-01T10:02:52;3.95;;;2.30;;
76593;SDS011;65482;50.240;14.302;2023-08-01T10:05:20;3.60;;;2.20;;
76593;SDS011;65482;50.240;14.302;2023-08-01T10:07:47;3.30;;;2.10;;
76593;SDS011;65482;50.240;14.302;2023-08-01T10:10:16;4.97;;;1.90;;
76593;SDS011;65482;50.240;14.302;2023-08-01T10:12:44;2.20;;;1.90;;
76593;SDS011;65482;50.240;14.302;2023-08-01T10:15:10;3.05;;;2.10;;
76593;SDS011;65482;50.240;14.302;2023-08-01T10:17:36;2.42;;;1.80;;
76593;SDS011;65482;50.240;14.302;2023-08-01T10:20:03;2.40;;;1.80;;
76593;SDS011;65482;50.240;14.302;2023-08-01T10:22:29;7.45;;;2.22;;
76593;SDS011;65482;50.240;14.302;2023-08-01T10:24:56;3.50;;;1.70;;
76593;SDS011;65482;50.240;14.302;2023-08-01T10:27:23;5.55;;;1.67;;
76593;SDS011;65482;50.240;14.302;2023-08-01T10:29:58;3.35;;;1.58;;
76593;SDS011;65482;50.240;14.302;2023-08-01T10:32:36;3.58;;;1.50;;
76593;SDS011;65482;50.240;14.302;2023-08-01T10:35:03;19.67;;;4.22;;
76593;SDS011;65482;50.240;14.302;2023-08-01T10:37:40;2.88;;;1.85;;
76593;SDS011;65482;50.240;14.302;2023-08-01T10:40:07;3.20;;;1.90;;
76593;SDS011;65482;50.240;14.302;2023-08-01T10:42:37;2.30;;;1.70;;
76593;SDS011;65482;50.240;14.302;2023-08-01T10:45:04;3.20;;;1.80;;
76593;SDS011;65482;50.240;14.302;2023-08-01T10:47:30;3.10;;;2.00;;
76593;SDS011;65482;50.240;14.302;2023-08-01T10:49:56;2.58;;;1.60;;
76593;SDS011;65482;50.240;14.302;2023-08-01T10:54:59;4.07;;;1.80;;
76593;SDS011;65482;50.240;14.302;2023-08-01T10:57:29;2.05;;;1.60;;
76593;SDS011;65482;50.240;14.302;2023-08-01T10:59:56;3.10;;;1.70;;
76593;SDS011;65482;50.240;14.302;2023-08-01T11:02:26;3.10;;;1.58;;
76593;SDS011;65482;50.240;14.302;2023-08-01T11:04:59;3.50;;;1.73;;
76593;SDS011;65482;50.240;14.302;2023-08-01T11:07:26;2.50;;;1.40;;
76593;SDS011;65482;50.240;14.302;2023-08-01T11:10:02;3.97;;;1.70;;
76593;SDS011;65482;50.240;14.302;2023-08-01T11:12:36;4.68;;;1.70;;
76593;SDS011;65482;50.240;14.302;2023-08-01T11:15:03;2.22;;;1.80;;
76593;SDS011;65482;50.240;14.302;2023-08-01T11:17:31;6.65;;;1.67;;
76593;SDS011;65482;50.240;14.302;2023-08-01T11:20:16;3.80;;;1.60;;
76593;SDS011;65482;50.240;14.302;2023-08-01T11:23:04;3.03;;;1.73;;
76593;SDS011;65482;50.240;14.302;2023-08-01T11:25:42;3.42;;;2.00;;
76593;SDS011;65482;50.240;14.302;2023-08-01T11:28:11;2.30;;;1.70;;
76593;SDS011;65482;50.240;14.302;2023-08-01T11:30:39;2.40;;;1.70;;
76593;SDS011;65482;50.240;14.302;2023-08-01T11:35:41;4.15;;;1.83;;
76593;SDS011;65482;50.240;14.302;2023-08-01T11:38:07;7.40;;;1.80;;
76593;SDS011;65482;50.240;14.302;2023-08-01T11:40:35;2.20;;;1.38;;
76593;SDS011;65482;50.240;14.302;2023-08-01T11:43:01;2.70;;;1.60;;
76593;SDS011;65482;50.240;14.302;2023-08-01T11:45:26;3.35;;;1.30;;
76593;SDS011;65482;50.240;14.302;2023-08-01T11:47:52;1.85;;;1.10;;
76593;SDS011;65482;50.240;14.302;2023-08-01T11:50:22;1.52;;;1.10;;
76593;SDS011;65482;50.240;14.302;2023-08-01T11:52:49;4.85;;;1.00;;
76593;SDS011;65482;50.240;14.302;2023-08-01T11:55:25;1.30;;;1.10;;
76593;SDS011;65482;50.240;14.302;2023-08-01T11:57:55;2.03;;;1.30;;
76593;SDS011;65482;50.240;14.302;2023-08-01T12:00:23;1.95;;;1.10;;
76593;SDS011;65482;50.240;14.302;2023-08-01T12:02:50;1.65;;;1.10;;
76593;SDS011;65482;50.240;14.302;2023-08-01T12:05:22;2.28;;;1.10;;
76593;SDS011;65482;50.240;14.302;2023-08-01T12:07:49;2.07;;;1.30;;
76593;SDS011;65482;50.240;14.302;2023-08-01T12:10:15;1.85;;;1.13;;
76593;SDS011;65482;50.240;14.302;2023-08-01T12:12:45;2.60;;;1.10;;
76593;SDS011;65482;50.240;14.302;2023-08-01T12:15:15;2.03;;;1.20;;
76593;SDS011;65482;50.240;14.302;2023-08-01T12:17:41;1.95;;;1.25;;
76593;SDS011;65482;50.240;14.302;2023-08-01T12:20:07;2.08;;;1.33;;
76593;SDS011;65482;50.240;14.302;2023-08-01T12:22:33;2.75;;;1.10;;
76593;SDS011;65482;50.240;14.302;2023-08-01T12:24:59;3.05;;;1.30;;
76593;SDS011;65482;50.240;14.302;2023-08-01T12:27:25;4.10;;;1.33;;
76593;SDS011;65482;50.240;14.302;2023-08-01T12:29:50;2.22;;;1.20;;
76593;SDS011;65482;50.240;14.302;2023-08-01T12:32:17;2.38;;;1.30;;
76593;SDS011;65482;50.240;14.302;2023-08-01T12:34:43;2.33;;;1.35;;
76593;SDS011;65482;50.240;14.302;2023-08-01T12:37:09;3.55;;;1.40;;
76593;SDS011;65482;50.240;14.302;2023-08-01T12:39:34;4.93;;;1.63;;
76593;SDS011;65482;50.240;14.302;2023-08-01T12:42:00;3.80;;;1.35;;
76593;SDS011;65482;50.240;14.302;2023-08-01T12:44:26;2.67;;;1.40;;
76593;SDS011;65482;50.240;14.302;2023-08-01T12:46:51;2.38;;;1.35;;
76593;SDS011;65482;50.240;14.302;2023-08-01T12:49:17;3.85;;;1.30;;
76593;SDS011;65482;50.240;14.302;2023-08-01T12:51:44;1.92;;;1.30;;
76593;SDS011;65482;50.240;14.302;2023-08-01T12:54:10;1.83;;;1.58;;
76593;SDS011;65482;50.240;14.302;2023-08-01T12:56:36;2.35;;;1.45;;
76593;SDS011;65482;50.240;14.302;2023-08-01T12:59:02;4.28;;;1.52;;
76593;SDS011;65482;50.240;14.302;2023-08-01T13:01:28;3.03;;;1.45;;
76593;SDS011;65482;50.240;14.302;2023-08-01T13:03:54;3.00;;;1.25;;
76593;SDS011;65482;50.240;14.302;2023-08-01T13:06:19;2.72;;;1.40;;
76593;SDS011;65482;50.240;14.302;2023-08-01T13:08:45;4.20;;;1.30;;
76593;SDS011;65482;50.240;14.302;2023-08-01T13:11:11;1.60;;;1.40;;
76593;SDS011;65482;50.240;14.302;2023-08-01T13:13:38;3.38;;;1.40;;
76593;SDS011;65482;50.240;14.302;2023-08-01T13:16:07;2.70;;;1.33;;
76593;SDS011;65482;50.240;14.302;2023-08-01T13:18:32;2.95;;;1.23;;
76593;SDS011;65482;50.240;14.302;2023-08-01T13:20:58;6.78;;;1.30;;
76593;SDS011;65482;50.240;14.302;2023-08-01T13:23:25;1.77;;;1.25;;
76593;SDS011;65482;50.240;14.302;2023-08-01T13:25:51;2.92;;;1.50;;
76593;SDS011;65482;50.240;14.302;2023-08-01T13:28:17;1.52;;;1.10;;
76593;SDS011;65482;50.240;14.302;2023-08-01T13:30:43;1.67;;;1.40;;
76593;SDS011;65482;50.240;14.302;2023-08-01T13:33:09;1.63;;;1.40;;
76593;SDS011;65482;50.240;14.302;2023-08-01T13:35:34;2.92;;;1.80;;
76593;SDS011;65482;50.240;14.302;2023-08-01T13:38:00;5.45;;;1.50;;
76593;SDS011;65482;50.240;14.302;2023-08-01T13:40:26;2.10;;;1.50;;
76593;SDS011;65482;50.240;14.302;2023-08-01T13:42:51;3.67;;;1.40;;
76593;SDS011;65482;50.240;14.302;2023-08-01T13:45:17;2.22;;;1.42;;
76593;SDS011;65482;50.240;14.302;2023-08-01T13:47:43;1.88;;;1.38;;
76593;SDS011;65482;50.240;14.302;2023-08-01T13:50:09;1.75;;;1.40;;
76593;SDS011;65482;50.240;14.302;2023-08-01T13:52:38;1.85;;;1.35;;
76593;SDS011;65482;50.240;14.302;2023-08-01T13:55:04;3.03;;;1.45;;
76593;SDS011;65482;50.240;14.302;2023-08-01T13:57:31;1.85;;;1.30;;
76593;SDS011;65482;50.240;14.302;2023-08-01T13:59:57;2.75;;;1.40;;
76593;SDS011;65482;50.240;14.302;2023-08-01T14:02:23;3.63;;;1.52;;
76593;SDS011;65482;50.240;14.302;2023-08-01T14:04:51;2.35;;;1.60;;
76593;SDS011;65482;50.240;14.302;2023-08-01T14:07:20;2.13;;;1.20;;
76593;SDS011;65482;50.240;14.302;2023-08-01T14:09:45;2.00;;;1.48;;
76593;SDS011;65482;50.240;14.302;2023-08-01T14:12:11;1.50;;;1.27;;
76593;SDS011;65482;50.240;14.302;2023-08-01T14:14:37;2.03;;;1.63;;
76593;SDS011;65482;50.240;14.302;2023-08-01T14:17:03;2.33;;;1.50;;
76593;SDS011;65482;50.240;14.302;2023-08-01T14:19:29;2.50;;;1.73;;
76593;SDS011;65482;50.240;14.302;2023-08-01T14:21:55;3.72;;;1.50;;
76593;SDS011;65482;50.240;14.302;2023-08-01T14:24:23;3.50;;;1.48;;
76593;SDS011;65482;50.240;14.302;2023-08-01T14:26:49;4.53;;;1.67;;
76593;SDS011;65482;50.240;14.302;2023-08-01T14:29:19;1.60;;;1.20;;
76593;SDS011;65482;50.240;14.302;2023-08-01T14:31:48;2.65;;;1.77;;
76593;SDS011;65482;50.240;14.302;2023-08-01T14:34:15;2.00;;;1.73;;
76593;SDS011;65482;50.240;14.302;2023-08-01T14:36:40;5.43;;;1.58;;